Time;durP1;ratioP1;P1;durP2;ratioP2;P2;SDS_P1;SDS_P2;PMS_P1;PMS_P2;Temp;Humidity;BMP_temperature;BMP_pressure;BME280_temperature;BME280_humidity;BME280_pressure;Samples;Min_cycle;Max_cycle;Signal;HPM_P1;HPM_P2
2021/06/17 00:00:42;;;;;;;15.55;12.88;;;;;;;21.93;66.92;100995.91;5133732;27;20047;-58
2021/06/17 00:03:09;;;;;;;14.30;11.30;;;;;;;21.92;66.98;100998.78;5133072;27;20054;-58
2021/06/17 00:05:36;;;;;;;14.77;12.05;;;;;;;21.97;67.32;100999.09;5113760;27;20047;-58
2021/06/17 00:08:07;;;;;;;17.20;12.43;;;;;;;22.01;67.23;100997.75;5114116;27;20092;-58
2021/06/17 00:10:39;;;;;;;14.73;12.27;;;;;;;22.00;67.62;100984.53;5133207;27;20379;-57
2021/06/17 00:13:12;;;;;;;15.73;12.32;;;;;;;21.99;67.66;100994.44;5133106;27;20043;-58
2021/06/17 00:15:40;;;;;;;13.82;11.45;;;;;;;21.95;67.89;100987.72;5133541;27;20505;-58
2021/06/17 00:18:08;;;;;;;14.95;11.68;;;;;;;21.95;68.05;100982.38;5114350;27;20463;-58
2021/06/17 00:20:35;;;;;;;13.05;11.55;;;;;;;21.90;67.91;100988.25;5131835;27;20069;-58
2021/06/17 00:23:03;;;;;;;15.02;11.55;;;;;;;21.94;67.82;100991.41;5132604;27;20043;-57
2021/06/17 00:25:30;;;;;;;14.07;11.45;;;;;;;21.83;68.13;100979.22;5132850;27;20059;-58
2021/06/17 00:27:57;;;;;;;13.75;12.30;;;;;;;21.83;68.28;100987.25;5114538;27;20035;-58
2021/06/17 00:30:25;;;;;;;17.08;11.75;;;;;;;21.82;68.18;100982.09;5114865;27;20047;-58
2021/06/17 00:32:52;;;;;;;13.90;11.77;;;;;;;21.78;68.78;100981.56;5114596;27;20514;-58
2021/06/17 00:35:19;;;;;;;12.60;11.30;;;;;;;21.84;68.54;100969.34;5113385;27;20055;-58
2021/06/17 00:37:46;;;;;;;15.05;11.50;;;;;;;21.85;68.45;100976.38;5113765;27;20058;-57
2021/06/17 00:40:14;;;;;;;14.60;11.20;;;;;;;21.78;68.49;100973.56;5132098;27;20066;-57
2021/06/17 00:42:43;;;;;;;14.90;11.20;;;;;;;21.77;68.57;100975.41;5132729;27;20043;-57
2021/06/17 00:45:13;;;;;;;15.35;11.52;;;;;;;21.68;68.88;100968.38;5132340;27;20047;-57
2021/06/17 00:47:41;;;;;;;13.43;10.73;;;;;;;21.62;69.48;100969.06;5114367;27;20043;-57
2021/06/17 00:50:09;;;;;;;13.77;10.98;;;;;;;21.61;69.49;100970.09;5130936;27;20506;-57
2021/06/17 00:52:37;;;;;;;13.95;11.10;;;;;;;21.61;69.46;100970.09;5114196;27;20058;-57
2021/06/17 00:55:04;;;;;;;13.10;10.93;;;;;;;21.55;69.47;100976.09;5131994;27;20518;-57
2021/06/17 00:57:31;;;;;;;15.65;11.68;;;;;;;21.39;70.20;100972.41;5114633;27;20104;-57
2021/06/17 00:59:58;;;;;;;13.48;11.50;;;;;;;21.44;70.19;100970.03;5131797;27;20058;-58
2021/06/17 01:02:25;;;;;;;14.15;11.77;;;;;;;21.44;70.32;100967.38;5132663;27;20051;-57
2021/06/17 01:04:52;;;;;;;14.27;11.23;;;;;;;21.41;70.33;100961.53;5112246;27;20046;-57
2021/06/17 01:07:29;;;;;;;14.70;11.98;;;;;;;21.37;70.19;100962.88;5096509;27;20067;-57
2021/06/17 01:10:09;;;;;;;12.88;11.30;;;;;;;21.39;69.78;100955.50;5114054;27;20055;-58
2021/06/17 01:12:51;;;;;;;12.60;10.60;;;;;;;21.36;70.25;100956.69;5114253;27;20054;-56
2021/06/17 01:15:20;;;;;;;15.82;11.55;;;;;;;21.38;70.03;100956.53;5095964;27;20418;-57
2021/06/17 01:18:12;;;;;;;18.80;12.05;;;;;;;21.27;70.71;100955.03;5113942;27;20066;-57
2021/06/17 01:20:50;;;;;;;15.32;11.48;;;;;;;21.28;70.57;100946.84;5112388;27;20523;-57
2021/06/17 01:23:35;;;;;;;17.55;11.00;;;;;;;21.23;70.51;100945.66;5131607;27;20498;-57
2021/06/17 01:26:31;;;;;;;15.32;11.50;;;;;;;21.22;70.38;100950.16;5131493;27;20506;-57
2021/06/17 01:28:59;;;;;;;16.70;12.48;;;;;;;21.19;70.36;100944.34;5095935;27;20513;-57
2021/06/17 01:31:28;;;;;;;15.60;11.45;;;;;;;21.16;70.27;100942.84;5113523;27;20488;-57
2021/06/17 01:33:56;;;;;;;15.93;12.10;;;;;;;21.10;70.48;100936.31;5113533;27;20493;-57
2021/06/17 01:36:34;;;;;;;16.58;12.82;;;;;;;21.04;70.55;100947.66;5111866;27;20051;-57
2021/06/17 01:39:06;;;;;;;14.50;11.65;;;;;;;21.05;70.95;100957.38;5112727;27;20058;-57
2021/06/17 01:41:37;;;;;;;16.55;13.02;;;;;;;21.12;70.79;100954.84;5113932;27;20058;-56
2021/06/17 01:44:05;;;;;;;19.70;13.38;;;;;;;21.06;70.75;100947.50;5112688;27;20483;-58
2021/06/17 01:46:33;;;;;;;15.77;12.98;;;;;;;20.96;70.61;100949.50;5131160;27;20074;-58
2021/06/17 01:49:00;;;;;;;16.60;13.35;;;;;;;20.93;71.25;100948.81;5113144;27;20075;-57
2021/06/17 01:51:27;;;;;;;17.42;13.07;;;;;;;20.91;71.29;100952.66;5129784;27;20054;-58
2021/06/17 01:53:55;;;;;;;19.80;14.05;;;;;;;20.91;71.79;100955.34;5112424;27;20050;-57
2021/06/17 01:56:24;;;;;;;15.50;12.88;;;;;;;20.89;71.54;100960.03;5112746;27;20047;-57
2021/06/17 01:58:54;;;;;;;15.38;12.40;;;;;;;20.86;71.73;100969.19;5112864;27;20054;-57
2021/06/17 02:01:23;;;;;;;14.85;13.10;;;;;;;20.85;72.03;100964.03;5112159;27;20047;-56
2021/06/17 02:03:51;;;;;;;17.05;13.35;;;;;;;20.75;72.25;100965.00;5130316;27;20174;-56
2021/06/17 02:06:18;;;;;;;17.92;14.32;;;;;;;20.76;72.54;100961.34;5111622;27;20111;-56
2021/06/17 02:08:47;;;;;;;16.33;14.40;;;;;;;20.81;72.29;100955.50;5095851;27;20055;-57
2021/06/17 02:11:14;;;;;;;15.25;13.45;;;;;;;20.77;72.77;100956.81;5096165;27;20073;-57
2021/06/17 02:13:42;;;;;;;17.15;13.75;;;;;;;20.82;72.38;100949.16;5131040;27;20491;-57
2021/06/17 02:16:09;;;;;;;16.48;13.60;;;;;;;20.76;72.65;100955.13;5111260;27;20047;-57
2021/06/17 02:18:38;;;;;;;16.60;13.75;;;;;;;20.81;72.74;100957.34;5130611;27;20298;-57
2021/06/17 02:21:07;;;;;;;15.93;14.18;;;;;;;20.75;73.08;100956.97;5111980;27;20051;-57
2021/06/17 02:23:35;;;;;;;17.10;14.55;;;;;;;20.68;73.22;100958.66;5130437;27;20107;-57
2021/06/17 02:26:03;;;;;;;17.77;14.48;;;;;;;20.72;73.21;100960.00;5112994;27;20043;-57
2021/06/17 02:28:36;;;;;;;18.15;14.75;;;;;;;20.59;73.55;100954.25;5130440;27;20406;-56
2021/06/17 02:31:08;;;;;;;19.77;14.55;;;;;;;20.60;73.63;100948.75;5111623;27;20051;-57
2021/06/17 02:33:36;;;;;;;19.98;14.80;;;;;;;20.64;73.19;100951.06;5111700;27;20047;-55
2021/06/17 02:36:04;;;;;;;17.67;14.35;;;;;;;20.61;73.02;100952.25;5107578;28;20063;-56
2021/06/17 02:38:34;;;;;;;17.60;14.25;;;;;;;20.53;73.64;100949.53;5108354;28;20043;-56
2021/06/17 02:41:05;;;;;;;18.00;14.35;;;;;;;20.52;73.95;100953.22;5109090;28;20052;-56
2021/06/17 02:43:34;;;;;;;16.60;14.05;;;;;;;20.53;73.83;100941.53;5110502;28;20039;-56
2021/06/17 02:46:02;;;;;;;16.65;14.30;;;;;;;20.46;73.66;100946.69;5108705;28;20056;-56
2021/06/17 02:48:29;;;;;;;18.25;13.73;;;;;;;20.40;73.88;100940.16;5109866;28;20048;-57
2021/06/17 02:50:56;;;;;;;20.63;15.27;;;;;;;20.35;74.12;100937.13;5108078;28;20043;-55
2021/06/17 02:53:23;;;;;;;18.13;13.75;;;;;;;20.37;73.86;100944.97;5109127;28;20600;-57
2021/06/17 02:55:50;;;;;;;17.42;15.57;;;;;;;20.35;74.16;100941.66;5109681;28;20040;-57
2021/06/17 02:58:32;;;;;;;18.55;15.85;;;;;;;20.32;74.11;100939.31;5108458;28;20062;-57
2021/06/17 03:01:11;;;;;;;18.50;15.88;;;;;;;20.32;74.45;100937.47;5109412;28;20051;-57
2021/06/17 03:03:46;;;;;;;20.27;17.23;;;;;;;20.30;74.70;100933.28;5109288;28;20048;-57
2021/06/17 03:06:39;;;;;;;20.83;18.35;;;;;;;20.24;74.61;100932.91;5107065;28;20106;-56
2021/06/17 03:09:12;;;;;;;22.58;17.25;;;;;;;20.26;74.76;100932.78;5109447;28;20051;-57
2021/06/17 03:11:41;;;;;;;24.17;19.67;;;;;;;20.21;75.01;100938.59;5109963;28;20055;-57
2021/06/17 03:14:16;;;;;;;19.92;17.58;;;;;;;20.18;75.02;100935.41;5108979;28;20052;-57
2021/06/17 03:16:46;;;;;;;23.25;20.83;;;;;;;20.21;74.63;100937.75;5108797;28;20047;-57
2021/06/17 03:19:13;;;;;;;22.08;19.25;;;;;;;20.21;74.26;100935.91;5107267;28;20383;-57
2021/06/17 03:21:44;;;;;;;24.02;19.98;;;;;;;20.17;74.45;100936.41;5108451;28;20552;-57
2021/06/17 03:24:12;;;;;;;21.48;19.17;;;;;;;20.12;74.41;100928.03;5108023;28;20051;-57
2021/06/17 03:26:40;;;;;;;24.27;19.48;;;;;;;20.13;74.57;100930.56;5109529;28;20521;-57
2021/06/17 03:29:07;;;;;;;26.42;19.58;;;;;;;20.13;74.24;100929.72;5112474;28;20112;-57
2021/06/17 03:31:35;;;;;;;24.27;21.23;;;;;;;20.08;74.89;100927.53;5112562;28;20112;-56
2021/06/17 03:34:03;;;;;;;22.88;20.38;;;;;;;20.09;74.77;100923.88;5095439;28;20502;-57
2021/06/17 03:36:30;;;;;;;24.27;21.65;;;;;;;20.17;74.72;100928.41;5111101;28;20071;-57
2021/06/17 03:38:58;;;;;;;22.70;20.17;;;;;;;20.13;74.93;100927.88;5112790;28;20055;-57
2021/06/17 03:41:26;;;;;;;23.58;21.20;;;;;;;20.11;75.09;100927.22;5112667;28;20117;-57
2021/06/17 03:43:53;;;;;;;24.20;21.60;;;;;;;20.18;74.60;100922.03;5113266;28;20073;-56
2021/06/17 03:46:21;;;;;;;27.13;22.75;;;;;;;20.09;74.98;100922.00;5112006;28;20481;-57
2021/06/17 03:48:48;;;;;;;25.55;22.85;;;;;;;20.12;74.29;100926.19;5113012;28;20055;-56
2021/06/17 03:51:15;;;;;;;25.20;22.48;;;;;;;20.13;74.39;100924.38;5110691;28;20039;-57
2021/06/17 03:53:46;;;;;;;25.40;22.63;;;;;;;20.14;74.31;100915.34;5112252;28;20491;-57
2021/06/17 03:56:15;;;;;;;24.33;21.73;;;;;;;20.16;74.07;100911.53;5112663;28;20055;-57
2021/06/17 03:58:43;;;;;;;25.27;21.92;;;;;;;20.12;74.08;100918.19;5113566;28;20051;-56
2021/06/17 04:01:11;;;;;;;24.60;20.77;;;;;;;20.15;74.01;100925.03;5112008;28;20047;-57
2021/06/17 04:03:38;;;;;;;23.83;21.25;;;;;;;20.20;74.06;100930.75;5111440;28;20060;-57
2021/06/17 04:06:10;;;;;;;25.70;23.05;;;;;;;20.17;73.65;100933.75;5111605;28;20109;-57
2021/06/17 04:08:43;;;;;;;25.55;22.00;;;;;;;20.19;73.71;100943.28;5111428;27;20063;-55
2021/06/17 04:11:11;;;;;;;25.23;22.52;;;;;;;20.21;73.59;100945.78;5111551;28;20498;-57
2021/06/17 04:13:42;;;;;;;26.77;22.25;;;;;;;20.27;73.52;100945.13;5112515;28;20044;-57
2021/06/17 04:16:12;;;;;;;22.35;19.95;;;;;;;20.27;73.24;100945.97;5112289;28;20051;-57
2021/06/17 04:18:39;;;;;;;26.25;22.20;;;;;;;20.26;73.37;100943.47;5111965;28;20052;-57
2021/06/17 04:21:07;;;;;;;24.55;21.52;;;;;;;20.28;73.23;100938.78;5112105;28;20062;-57
2021/06/17 04:23:35;;;;;;;26.42;21.33;;;;;;;20.27;73.44;100945.13;5110432;28;20496;-57
2021/06/17 04:26:02;;;;;;;25.13;22.30;;;;;;;20.29;73.73;100943.13;5112876;28;20489;-57
2021/06/17 04:28:29;;;;;;;25.08;22.48;;;;;;;20.32;73.36;100937.47;5111275;28;20046;-57
2021/06/17 04:30:57;;;;;;;24.63;22.05;;;;;;;20.34;73.42;100939.97;5112333;28;20043;-56
2021/06/17 04:33:25;;;;;;;24.25;21.73;;;;;;;20.37;73.43;100942.31;5111118;28;20051;-55
2021/06/17 04:35:54;;;;;;;23.75;21.13;;;;;;;20.39;72.93;100938.47;5110401;28;20047;-57
2021/06/17 04:38:22;;;;;;;23.88;21.30;;;;;;;20.46;72.72;100946.69;5109366;28;20083;-56
2021/06/17 04:40:50;;;;;;;23.15;20.60;;;;;;;20.47;72.55;100944.88;5112175;28;20044;-56
2021/06/17 04:43:21;;;;;;;23.70;21.25;;;;;;;20.53;72.62;100958.41;5094320;28;20453;-56
2021/06/17 04:45:52;;;;;;;23.38;20.88;;;;;;;20.54;72.72;100943.22;5111920;28;20055;-57
2021/06/17 04:48:22;;;;;;;23.95;21.15;;;;;;;20.58;72.76;100942.72;5110424;28;20061;-57
2021/06/17 04:50:49;;;;;;;25.15;22.27;;;;;;;20.61;72.62;100944.22;5111057;28;20079;-58
2021/06/17 04:53:17;;;;;;;22.58;20.23;;;;;;;20.69;72.32;100943.44;5110664;28;20075;-58
2021/06/17 04:55:49;;;;;;;24.40;20.67;;;;;;;20.74;72.07;100944.63;5110693;28;20097;-58
2021/06/17 04:58:18;;;;;;;23.10;20.70;;;;;;;20.79;72.26;100948.63;5112138;28;20673;-58
2021/06/17 05:00:45;;;;;;;24.95;19.38;;;;;;;20.87;71.66;100951.31;5110496;28;20495;-58
2021/06/17 05:03:12;;;;;;;21.67;19.33;;;;;;;20.90;71.63;100951.84;5111996;28;20130;-58
2021/06/17 05:05:39;;;;;;;21.50;18.08;;;;;;;21.01;71.46;100952.50;5109461;28;20077;-57
2021/06/17 05:10:52;;;;;;;18.65;15.50;;;;;;;21.17;70.63;100951.69;5110489;28;20483;-58
2021/06/17 05:13:29;;;;;;;18.58;16.15;;;;;;;21.32;69.53;100950.00;5110519;28;20043;-58
2021/06/17 05:15:59;;;;;;;15.77;13.60;;;;;;;21.36;69.95;100953.19;5111416;27;20043;-58
2021/06/17 05:18:28;;;;;;;21.08;13.38;;;;;;;21.53;68.78;100957.53;5111521;27;20090;-58
2021/06/17 05:20:56;;;;;;;17.00;13.63;;;;;;;21.55;68.38;100960.03;5109598;28;20092;-57
2021/06/17 05:23:23;;;;;;;15.38;13.32;;;;;;;21.70;67.90;100958.34;5110316;28;20484;-58
2021/06/17 05:25:51;;;;;;;16.13;12.68;;;;;;;21.82;68.17;100964.19;5110228;28;20511;-58
2021/06/17 05:28:21;;;;;;;15.80;12.65;;;;;;;21.88;67.74;100962.66;5111505;28;20047;-58
2021/06/17 05:30:49;;;;;;;18.63;12.57;;;;;;;22.06;66.83;100957.06;5110118;28;20054;-58
2021/06/17 05:33:16;;;;;;;14.85;11.60;;;;;;;22.11;66.17;100966.28;5111315;28;20059;-58
2021/06/17 05:35:46;;;;;;;14.75;11.80;;;;;;;22.23;66.54;100964.03;5123031;27;21029;-58
2021/06/17 05:38:20;;;;;;;15.38;11.82;;;;;;;22.44;65.44;100959.94;5131124;27;20047;-58
2021/06/17 05:40:47;;;;;;;16.65;11.43;;;;;;;22.51;65.33;100941.31;5131202;27;20095;-57
2021/06/17 05:43:15;;;;;;;16.63;11.88;;;;;;;22.62;64.17;100944.44;5131972;27;20059;-56
2021/06/17 05:45:42;;;;;;;15.85;11.48;;;;;;;22.71;64.17;100942.53;5113288;27;20067;-57
2021/06/17 05:48:09;;;;;;;14.88;11.30;;;;;;;22.81;63.95;100944.16;5131532;27;20053;-56
2021/06/17 05:50:36;;;;;;;16.67;11.73;;;;;;;22.96;62.90;100945.06;5128321;27;20047;-57
2021/06/17 05:53:03;;;;;;;14.40;9.90;;;;;;;23.05;62.63;100946.66;5098617;27;20047;-56
2021/06/17 05:55:31;;;;;;;14.43;9.73;;;;;;;23.17;63.45;100951.66;5128068;27;20491;-56
2021/06/17 05:57:57;;;;;;;13.52;9.85;;;;;;;23.26;61.62;100958.59;5130544;27;20043;-53
2021/06/17 06:00:24;;;;;;;10.90;9.65;;;;;;;23.32;61.78;100962.41;5131040;27;20116;-57
2021/06/17 06:02:51;;;;;;;18.60;10.05;;;;;;;23.54;61.55;100969.56;5112823;27;20039;-57
2021/06/17 06:05:19;;;;;;;12.27;9.65;;;;;;;23.65;61.05;100965.59;5129585;27;20039;-57
2021/06/17 06:07:46;;;;;;;13.10;9.10;;;;;;;23.75;60.93;100960.81;5129637;27;20084;-56
2021/06/17 06:10:17;;;;;;;13.38;10.07;;;;;;;23.92;60.05;100963.34;5111800;27;20383;-57
2021/06/17 06:12:44;;;;;;;11.93;9.35;;;;;;;24.08;60.28;100963.16;5131048;27;20051;-57
2021/06/17 06:15:11;;;;;;;14.50;10.18;;;;;;;24.22;59.10;100966.84;5113057;27;20503;-57
2021/06/17 06:17:39;;;;;;;13.77;9.30;;;;;;;24.25;60.15;100957.56;5130979;27;20047;-56
2021/06/17 06:20:07;;;;;;;13.73;9.20;;;;;;;24.38;58.69;100962.28;5129214;27;20104;-56
2021/06/17 06:22:34;;;;;;;11.43;9.68;;;;;;;24.42;59.21;100959.03;5130057;27;20043;-57
2021/06/17 06:25:01;;;;;;;12.27;9.50;;;;;;;24.59;57.44;100970.38;5112386;27;20040;-57
2021/06/17 06:27:28;;;;;;;11.30;8.70;;;;;;;24.68;57.19;100970.28;5128050;27;20051;-55
2021/06/17 06:29:59;;;;;;;10.57;8.32;;;;;;;24.79;57.86;100976.00;5129562;27;20120;-56
2021/06/17 06:32:26;;;;;;;12.90;9.18;;;;;;;24.96;56.63;100976.63;5130279;27;20051;-57
2021/06/17 06:34:53;;;;;;;13.77;8.60;;;;;;;25.09;56.73;100980.47;5128055;27;20062;-56
2021/06/17 06:37:20;;;;;;;11.82;8.48;;;;;;;25.27;55.90;100971.91;5111358;27;20479;-56
2021/06/17 06:39:47;;;;;;;11.35;7.88;;;;;;;25.38;56.07;100978.66;5128793;27;20035;-56
2021/06/17 06:42:14;;;;;;;12.40;8.18;;;;;;;25.47;55.79;100981.00;5129039;28;20066;-56
2021/06/17 06:44:40;;;;;;;11.82;8.68;;;;;;;25.56;54.36;100968.22;5129355;28;20128;-56
2021/06/17 06:47:07;;;;;;;12.10;8.20;;;;;;;25.58;53.71;100971.56;5129200;28;20129;-59
2021/06/17 06:49:34;;;;;;;9.95;7.93;;;;;;;25.70;54.24;100963.78;5110462;28;20047;-58
2021/06/17 06:52:01;;;;;;;10.93;6.75;;;;;;;25.91;54.31;100970.13;5110280;28;20096;-58
2021/06/17 06:54:29;;;;;;;11.43;7.72;;;;;;;26.03;52.98;100971.25;5128974;28;20039;-57
2021/06/17 06:56:55;;;;;;;11.65;8.02;;;;;;;26.19;52.98;100963.84;5128969;28;20619;-58
2021/06/17 06:59:22;;;;;;;12.73;7.80;;;;;;;26.39;52.42;100972.84;5129110;28;20054;-56
2021/06/17 07:01:49;;;;;;;12.30;7.63;;;;;;;26.51;51.77;100975.00;5130707;27;20058;-56
2021/06/17 07:04:16;;;;;;;12.60;7.55;;;;;;;26.63;53.01;100976.06;5132709;27;20812;-58
2021/06/17 07:06:43;;;;;;;14.55;8.40;;;;;;;26.65;51.17;100982.91;5133300;27;20069;-59
2021/06/17 07:09:10;;;;;;;9.48;7.05;;;;;;;26.64;51.26;100977.69;5132877;27;20055;-58
2021/06/17 07:11:37;;;;;;;12.98;6.45;;;;;;;26.92;51.20;100974.88;5133605;27;20051;-56
2021/06/17 07:14:06;;;;;;;11.57;8.07;;;;;;;27.06;49.90;100978.44;5133310;27;20043;-56
2021/06/17 07:16:34;;;;;;;10.35;7.07;;;;;;;27.18;49.69;100989.44;5099164;27;20391;-55
2021/06/17 07:19:02;;;;;;;12.35;7.68;;;;;;;27.15;50.40;100989.88;5097985;27;20513;-47
2021/06/17 07:21:29;;;;;;;11.98;7.07;;;;;;;27.18;50.00;100989.44;5132358;27;20047;-58
2021/06/17 07:23:56;;;;;;;9.73;6.95;;;;;;;27.14;49.76;100985.50;5132503;27;20055;-58
2021/06/17 07:26:27;;;;;;;8.45;6.22;;;;;;;27.21;50.39;100985.50;5133357;27;20082;-56
2021/06/17 07:28:55;;;;;;;9.88;5.88;;;;;;;27.32;51.36;100968.69;5115643;27;20043;-57
2021/06/17 07:31:22;;;;;;;10.77;7.00;;;;;;;27.28;50.58;100967.44;5133308;27;20047;-57
2021/06/17 07:33:50;;;;;;;11.80;6.53;;;;;;;27.40;48.84;100973.91;5114691;27;20410;-57
2021/06/17 07:36:17;;;;;;;9.35;6.35;;;;;;;27.51;48.99;100967.03;5092940;28;20063;-57
2021/06/17 07:38:44;;;;;;;8.55;5.57;;;;;;;27.51;48.71;100971.63;5111919;28;20047;-57
2021/06/17 07:41:11;;;;;;;9.18;5.88;;;;;;;27.52;49.17;100976.00;5111482;28;20043;-55
2021/06/17 07:43:38;;;;;;;8.25;5.35;;;;;;;27.59;50.82;100993.81;5112306;28;20089;-57
2021/06/17 07:46:05;;;;;;;10.43;5.57;;;;;;;27.79;50.65;100990.28;5112230;28;20117;-57
2021/06/17 07:48:33;;;;;;;9.68;5.68;;;;;;;28.12;49.21;100987.50;5111052;28;20139;-57
2021/06/17 07:50:59;;;;;;;9.90;5.13;;;;;;;28.26;47.40;100995.56;5109790;28;20047;-57
2021/06/17 07:53:26;;;;;;;8.25;4.95;;;;;;;28.43;47.84;101001.34;5111398;28;20052;-57
2021/06/17 07:55:53;;;;;;;10.98;4.82;;;;;;;28.64;47.53;101005.63;5112281;27;20635;-57
2021/06/17 07:58:20;;;;;;;8.55;5.18;;;;;;;28.90;47.71;101007.34;5112123;28;20130;-57
2021/06/17 08:00:47;;;;;;;10.88;5.13;;;;;;;29.02;45.60;101010.19;5112017;28;20059;-57
2021/06/17 08:03:14;;;;;;;9.00;5.45;;;;;;;29.20;44.11;101005.91;5110700;28;20115;-57
2021/06/17 08:05:41;;;;;;;8.52;4.93;;;;;;;29.32;44.78;100990.63;5111005;28;20059;-57
2021/06/17 08:08:08;;;;;;;10.10;5.13;;;;;;;29.58;44.97;100983.31;5111258;28;20051;-57
2021/06/17 08:10:36;;;;;;;8.40;5.28;;;;;;;29.83;42.66;100980.53;5110300;28;20105;-57
2021/06/17 08:13:02;;;;;;;9.88;4.80;;;;;;;30.09;41.61;100975.91;5110499;28;20056;-57
2021/06/17 08:15:29;;;;;;;7.75;4.50;;;;;;;30.26;41.55;100978.84;5111625;28;20036;-57
2021/06/17 08:17:57;;;;;;;11.85;4.80;;;;;;;30.44;41.17;100978.84;5110290;28;20116;-56
2021/06/17 08:20:23;;;;;;;11.23;4.97;;;;;;;30.52;40.29;100970.38;5109445;28;20051;-56
2021/06/17 08:22:51;;;;;;;9.48;4.35;;;;;;;30.77;40.07;100979.44;5110819;28;20055;-56
2021/06/17 08:25:17;;;;;;;8.45;4.07;;;;;;;31.00;40.34;100979.50;5111327;27;20051;-58
2021/06/17 08:27:44;;;;;;;8.20;4.03;;;;;;;31.10;38.60;100984.38;5109610;28;20048;-57
2021/06/17 08:30:14;;;;;;;7.97;4.55;;;;;;;31.16;37.92;100985.34;5103780;28;20042;-58
2021/06/17 08:32:41;;;;;;;6.13;3.85;;;;;;;31.43;38.31;100980.28;5108609;28;20077;-56
2021/06/17 08:35:08;;;;;;;8.35;4.35;;;;;;;31.50;37.64;100983.69;5106600;27;20051;-56
2021/06/17 08:37:36;;;;;;;7.20;4.00;;;;;;;31.71;36.95;100976.03;5110576;27;20074;-56
2021/06/17 08:40:04;;;;;;;7.60;4.22;;;;;;;31.72;36.96;100977.69;5102413;27;20054;-56
2021/06/17 08:42:32;;;;;;;10.70;4.10;;;;;;;32.00;36.32;100984.25;5097332;27;20506;-57
2021/06/17 08:45:00;;;;;;;7.60;4.00;;;;;;;32.12;36.39;100981.53;5106402;27;20542;-57
2021/06/17 08:47:27;;;;;;;7.10;4.28;;;;;;;32.29;36.12;100977.00;5129591;27;20433;-57
2021/06/17 08:49:54;;;;;;;6.85;4.35;;;;;;;32.41;35.72;100978.84;5131790;27;20701;-57
2021/06/17 08:52:22;;;;;;;8.00;4.38;;;;;;;32.37;36.55;100981.25;5113539;27;20043;-57
2021/06/17 08:54:49;;;;;;;7.10;4.50;;;;;;;32.57;35.69;100972.63;5123988;27;20043;-58
2021/06/17 08:57:16;;;;;;;9.32;4.90;;;;;;;32.69;34.53;100958.97;5129308;27;20046;-58
2021/06/17 08:59:45;;;;;;;11.98;4.10;;;;;;;33.01;35.52;100970.16;5113903;27;20073;-58
2021/06/17 09:02:12;;;;;;;8.82;4.10;;;;;;;33.18;34.80;100969.34;5112009;27;20812;-57
2021/06/17 09:04:39;;;;;;;8.02;4.13;;;;;;;33.15;34.08;100950.78;5131140;27;20047;-57
2021/06/17 09:07:13;;;;;;;8.15;3.63;;;;;;;33.41;33.79;100949.28;5126015;27;20051;-56
2021/06/17 09:09:43;;;;;;;6.47;3.58;;;;;;;33.56;33.28;100945.94;5131746;27;20065;-57
2021/06/17 09:12:13;;;;;;;7.82;3.83;;;;;;;33.10;33.40;100940.59;5129318;27;20051;-56
2021/06/17 09:15:00;;;;;;;7.38;3.67;;;;;;;33.71;33.29;100937.16;5115983;27;20127;-56
2021/06/17 09:17:26;;;;;;;8.00;3.92;;;;;;;33.94;31.93;100935.28;5131169;27;20065;-57
2021/06/17 09:19:53;;;;;;;7.88;3.67;;;;;;;33.84;33.04;100931.34;5130828;27;20070;-57
2021/06/17 09:22:23;;;;;;;8.77;4.60;;;;;;;33.96;31.88;100920.28;5130411;27;20038;-57
2021/06/17 09:24:51;;;;;;;5.72;3.63;;;;;;;34.03;32.46;100920.94;5112222;27;20434;-57
2021/06/17 09:27:22;;;;;;;;;;;;;;;34.16;32.98;100914.25;5129996;27;20104;-57
2021/06/17 09:29:51;;;;;;;9.70;3.55;;;;;;;34.22;33.16;100912.41;5131051;27;19919;-57
2021/06/17 09:32:23;;;;;;;6.82;3.30;;;;;;;34.44;31.44;100915.13;5130028;27;20651;-57
2021/06/17 09:34:51;;;;;;;7.63;3.63;;;;;;;34.36;31.11;100910.94;5128163;27;20406;-56
2021/06/17 09:37:32;;;;;;;6.75;3.70;;;;;;;34.33;30.55;100905.16;5109772;27;20631;-56
2021/06/17 09:40:01;;;;;;;6.68;3.42;;;;;;;34.68;30.64;100907.41;5128315;27;20406;-56
2021/06/17 09:42:29;;;;;;;10.52;3.55;;;;;;;34.69;30.14;100900.84;5108500;27;20053;-56
2021/06/17 09:44:59;;;;;;;6.70;3.60;;;;;;;35.38;30.86;100909.28;5111620;27;20039;-57
2021/06/17 09:47:32;;;;;;;7.40;3.88;;;;;;;35.25;29.00;100898.84;5130710;27;20057;-57
2021/06/17 09:50:01;;;;;;;6.97;3.53;;;;;;;35.21;31.06;100907.53;5130724;27;20096;-56
2021/06/17 09:52:38;;;;;;;7.80;3.80;;;;;;;34.92;30.50;100907.09;5111727;27;20058;-56
2021/06/17 09:55:05;;;;;;;8.65;4.05;;;;;;;35.18;30.20;100901.78;5130051;27;20054;-56
2021/06/17 09:57:38;;;;;;;6.35;3.70;;;;;;;35.13;29.73;100890.81;5129356;27;20053;-56
2021/06/17 10:00:14;;;;;;;6.82;3.80;;;;;;;35.47;28.63;100902.25;5112092;27;20054;-56
2021/06/17 10:02:41;;;;;;;6.70;3.60;;;;;;;35.59;28.58;100898.47;5130050;27;20529;-56
2021/06/17 10:05:15;;;;;;;7.20;3.83;;;;;;;35.69;29.45;100898.50;5129964;27;20142;-56
2021/06/17 10:07:43;;;;;;;7.03;3.20;;;;;;;35.92;28.87;100894.53;5129779;27;20051;-56
2021/06/17 10:10:12;;;;;;;9.98;3.95;;;;;;;35.98;28.72;100892.63;5094600;27;20483;-56
2021/06/17 10:12:40;;;;;;;10.18;3.92;;;;;;;35.93;29.29;100890.69;5128751;27;20498;-57
2021/06/17 10:15:08;;;;;;;9.55;4.13;;;;;;;35.40;28.90;100893.47;5111652;27;20507;-58
2021/06/17 10:17:35;;;;;;;7.63;3.95;;;;;;;35.39;29.31;100875.41;5111670;27;20061;-57
2021/06/17 10:20:11;;;;;;;6.22;4.00;;;;;;;35.21;30.13;100874.75;5129814;27;20398;-57
2021/06/17 10:22:39;;;;;;;6.50;3.85;;;;;;;35.20;29.74;100866.81;5111379;27;20050;-58
2021/06/17 10:25:08;;;;;;;6.50;3.90;;;;;;;35.75;28.56;100856.44;5111509;27;20066;-59
2021/06/17 10:27:42;;;;;;;6.93;3.53;;;;;;;35.28;30.44;100857.31;5128344;27;20057;-56
2021/06/17 10:30:10;;;;;;;8.80;3.97;;;;;;;35.28;30.15;100841.72;5111864;27;20051;-56
2021/06/17 10:32:40;;;;;;;8.35;4.10;;;;;;;35.47;29.74;100839.38;5111202;27;20499;-56
2021/06/17 10:35:08;;;;;;;6.72;4.63;;;;;;;35.74;29.48;100838.38;5094950;28;20059;-56
2021/06/17 10:37:47;;;;;;;8.07;4.68;;;;;;;35.70;30.77;100840.00;5128393;27;20051;-56
2021/06/17 10:40:14;;;;;;;9.02;3.90;;;;;;;35.80;29.05;100864.63;5129462;27;20084;-56
2021/06/17 10:42:47;;;;;;;7.22;4.05;;;;;;;35.58;30.45;100869.50;5128147;27;20504;-56
2021/06/17 10:45:32;;;;;;;9.38;4.55;;;;;;;35.47;30.41;100877.66;5129764;28;20104;-56
2021/06/17 10:48:01;;;;;;;5.50;3.78;;;;;;;35.67;29.87;100881.56;5129636;28;20047;-56
2021/06/17 10:50:44;;;;;;;6.68;3.20;;;;;;;35.59;29.39;100871.97;5129366;28;20051;-57
2021/06/17 10:53:20;;;;;;;7.03;3.80;;;;;;;35.37;30.91;100875.69;5129517;27;20047;-56
2021/06/17 10:56:04;;;;;;;7.90;4.15;;;;;;;35.10;30.84;100885.91;5128927;28;20043;-56
2021/06/17 10:58:43;;;;;;;8.10;4.03;;;;;;;35.68;30.51;100886.78;5128329;28;20506;-58
2021/06/17 11:01:25;;;;;;;10.27;4.05;;;;;;;35.95;30.06;100879.50;5129574;28;20415;-57
2021/06/17 11:04:09;;;;;;;7.47;4.27;;;;;;;36.11;30.45;100872.94;5129628;27;20051;-59
2021/06/17 11:06:51;;;;;;;6.82;3.97;;;;;;;36.07;30.22;100885.53;5129566;28;20051;-59
2021/06/17 11:09:45;;;;;;;8.02;4.40;;;;;;;36.10;30.09;100892.38;5110337;28;20533;-58
2021/06/17 11:12:12;;;;;;;7.68;4.40;;;;;;;35.86;29.72;100890.97;5109714;28;20066;-57
2021/06/17 11:14:49;;;;;;;7.35;4.38;;;;;;;35.69;30.65;100899.31;5129360;27;20078;-57
2021/06/17 11:20:02;;;;;;;9.07;4.38;;;;;;;35.60;32.17;100906.41;5129063;27;20054;-58
2021/06/17 11:22:42;;;;;;;9.02;4.82;;;;;;;35.65;31.57;100902.88;5110777;28;20518;-58
2021/06/17 11:25:22;;;;;;;9.25;4.30;;;;;;;35.39;31.42;100910.94;5111321;28;20051;-58
2021/06/17 11:28:02;;;;;;;7.68;4.60;;;;;;;35.98;31.55;100915.34;5109716;28;20043;-58
2021/06/17 11:30:38;;;;;;;9.23;4.18;;;;;;;36.10;31.60;100926.03;5129436;28;20824;-58
2021/06/17 11:33:14;;;;;;;6.88;4.00;;;;;;;36.34;30.55;100929.13;5129219;28;21153;-58